createdAt,value
2019-05-23T06:18:52.768Z,84.32
2019-05-23T06:21:24.161Z,83.35
2019-05-23T06:23:52.659Z,81.31
2019-05-23T06:26:22.006Z,80.20
2019-05-23T06:28:50.606Z,78.34
2019-05-23T06:31:21.485Z,75.91
2019-05-23T06:33:50.759Z,75.29
2019-05-23T06:36:19.261Z,74.08
2019-05-23T06:38:48.078Z,73.78
2019-05-23T06:41:18.315Z,69.93
2019-05-23T06:43:46.899Z,69.26
2019-05-23T06:46:15.728Z,67.18
2019-05-23T06:48:45.805Z,65.18
2019-05-23T06:51:13.914Z,62.18
2019-05-23T06:53:42.365Z,67.44
2019-05-23T06:56:13.402Z,61.74
2019-05-23T06:58:42.584Z,62.60
2019-05-23T07:01:10.990Z,61.02
2019-05-23T07:03:42.897Z,57.53
2019-05-23T07:06:11.851Z,60.87
2019-05-23T07:08:40.268Z,59.83
2019-05-23T07:11:08.721Z,57.52
2019-05-23T07:13:37.730Z,56.92
2019-05-23T07:16:06.630Z,56.91
2019-05-23T07:18:35.707Z,54.20
2019-05-23T07:21:05.049Z,52.92
2019-05-23T07:23:33.560Z,54.83
2019-05-23T07:26:02.570Z,52.82
2019-05-23T07:28:31.376Z,51.74
2019-05-23T07:30:59.884Z,51.56
2019-05-23T07:33:28.319Z,51.03
2019-05-23T07:35:56.759Z,49.97
2019-05-23T07:38:25.198Z,50.54
2019-05-23T07:40:54.635Z,50.67
2019-05-23T07:43:23.128Z,50.08
2019-05-23T07:45:53.194Z,49.29
2019-05-23T07:48:21.645Z,47.42
2019-05-23T07:50:50.078Z,48.29
2019-05-23T07:53:23.142Z,48.73
2019-05-23T07:55:53.214Z,48.85
2019-05-23T07:58:21.652Z,47.60
2019-05-23T08:00:57.976Z,47.07
2019-05-23T08:03:30.107Z,44.98
2019-05-23T08:05:58.551Z,43.81
2019-05-23T08:08:27.148Z,43.59
2019-05-23T08:10:55.592Z,44.40
2019-05-23T08:13:24.866Z,44.93
2019-05-23T08:15:53.265Z,44.69
2019-05-23T08:18:21.701Z,45.13
2019-05-23T08:20:50.192Z,45.97
2019-05-23T08:23:19.032Z,44.33
2019-05-23T08:25:47.837Z,43.61
2019-05-23T08:28:16.330Z,44.12
2019-05-23T08:30:44.891Z,44.08
2019-05-23T08:33:14.797Z,44.47
2019-05-23T08:35:44.490Z,44.75
2019-05-23T08:38:14.118Z,42.90
2019-05-23T08:40:43.281Z,41.04
2019-05-23T08:43:11.770Z,42.23
2019-05-23T08:45:40.191Z,41.60
2019-05-23T08:48:08.887Z,42.34
2019-05-23T08:50:37.592Z,42.43
2019-05-23T08:53:06.023Z,41.46
2019-05-23T08:55:34.445Z,39.73
2019-05-23T08:58:03.957Z,41.46
2019-05-23T09:00:34.486Z,41.63
2019-05-23T09:03:03.678Z,39.63
2019-05-23T09:05:36.784Z,40.77
2019-05-23T09:08:06.048Z,38.96
2019-05-23T09:10:36.296Z,38.98
2019-05-23T09:13:04.940Z,37.79
2019-05-23T09:15:33.387Z,38.26
2019-05-23T09:18:01.938Z,36.32
2019-05-23T09:20:31.012Z,35.42
2019-05-23T09:22:59.448Z,35.21
2019-05-23T09:25:27.888Z,33.45
2019-05-23T09:27:57.051Z,33.59
2019-05-23T09:30:26.893Z,33.03
2019-05-23T09:32:55.362Z,31.67
2019-05-23T09:35:24.251Z,32.14
2019-05-23T09:40:20.390Z,31.87
2019-05-23T09:42:48.896Z,33.19
2019-05-23T09:45:18.604Z,30.67
2019-05-23T09:47:51.090Z,30.56
2019-05-23T09:50:18.824Z,30.20
2019-05-23T09:52:47.355Z,30.83
2019-05-23T09:55:17.322Z,30.70
2019-05-23T09:57:45.290Z,30.79
2019-05-23T10:00:17.228Z,30.87
2019-05-23T10:02:45.630Z,30.19
2019-05-23T10:05:14.712Z,30.54
2019-05-23T10:07:43.166Z,29.87
2019-05-23T10:10:13.216Z,31.03
2019-05-23T10:12:41.733Z,30.88
2019-05-23T10:15:12.960Z,30.57
2019-05-23T10:17:41.494Z,30.79
2019-05-23T10:20:10.560Z,29.50
2019-05-23T10:22:39.068Z,29.48
2019-05-23T10:25:08.546Z,29.64
2019-05-23T10:27:37.150Z,29.29
2019-05-23T10:30:12.144Z,28.76
2019-05-23T10:32:40.577Z,28.45
2019-05-23T10:35:10.269Z,28.09
2019-05-23T10:37:38.770Z,27.76
2019-05-23T10:40:07.941Z,28.21
2019-05-23T10:42:38.074Z,27.90
2019-05-23T10:45:08.751Z,27.95
2019-05-23T10:47:37.357Z,27.83
2019-05-23T10:50:09.766Z,27.41
2019-05-23T10:52:37.956Z,28.20
2019-05-23T10:55:07.350Z,27.21
2019-05-23T10:57:35.876Z,26.47
2019-05-23T11:00:07.381Z,27.25
2019-05-23T11:02:36.850Z,27.60
2019-05-23T11:05:13.674Z,27.42
2019-05-23T11:07:43.975Z,27.81
2019-05-23T11:10:13.030Z,27.68
2019-05-23T11:12:41.931Z,27.65
2019-05-23T11:15:10.541Z,27.82
2019-05-23T11:17:40.300Z,28.56
2019-05-23T11:20:10.881Z,28.19
2019-05-23T11:22:39.883Z,27.67
2019-05-23T11:25:10.816Z,27.97
2019-05-23T11:27:39.877Z,28.50
2019-05-23T11:30:26.818Z,27.16
2019-05-23T11:32:55.274Z,28.30
2019-05-23T11:35:24.663Z,26.72
2019-05-23T11:37:53.094Z,29.11
2019-05-23T11:40:22.694Z,28.17
2019-05-23T11:42:52.706Z,28.00
2019-05-23T11:45:23.953Z,27.23
2019-05-23T11:47:52.427Z,27.39
2019-05-23T11:50:20.896Z,26.65
2019-05-23T11:52:49.809Z,27.10
2019-05-23T11:55:18.803Z,26.81
2019-05-23T11:57:47.229Z,27.48
2019-05-23T12:00:18.191Z,27.04
2019-05-23T12:02:48.461Z,27.73
2019-05-23T12:05:18.735Z,27.11
2019-05-23T12:07:47.332Z,26.54
2019-05-23T12:10:17.175Z,26.05
2019-05-23T12:12:45.672Z,26.77
2019-05-23T12:15:17.403Z,26.87
2019-05-23T12:17:45.809Z,26.73
2019-05-23T12:20:15.751Z,27.29
2019-05-23T12:22:44.884Z,26.49
2019-05-23T12:25:21.956Z,27.62
2019-05-23T12:27:44.281Z,26.62
2019-05-23T12:30:15.361Z,27.18
2019-05-23T12:32:43.852Z,26.53
2019-05-23T12:35:12.740Z,26.16
2019-05-23T12:37:41.255Z,26.45
2019-05-23T12:40:12.260Z,25.69
2019-05-23T12:42:40.686Z,25.63
2019-05-23T12:45:11.016Z,25.82
2019-05-23T12:47:50.240Z,27.71
2019-05-23T12:50:25.953Z,27.06
2019-05-23T12:52:54.383Z,27.73
2019-05-23T12:55:22.937Z,27.07
2019-05-23T12:57:51.421Z,28.06
2019-05-23T13:00:22.321Z,27.86
2019-05-23T13:02:50.763Z,28.32
2019-05-23T13:05:20.103Z,27.63
2019-05-23T13:07:48.581Z,26.70
2019-05-23T13:10:16.971Z,28.17
2019-05-23T13:12:45.415Z,27.27
2019-05-23T13:15:14.001Z,26.29
2019-05-23T13:17:42.416Z,28.18
2019-05-23T13:20:11.864Z,28.05
2019-05-23T13:22:40.292Z,27.36
2019-05-23T13:25:09.038Z,26.59
2019-05-23T13:27:37.840Z,28.04
2019-05-23T13:30:08.350Z,26.69
2019-05-23T13:32:37.200Z,27.35
2019-05-23T13:35:07.829Z,27.34
2019-05-23T13:37:52.314Z,26.81
2019-05-23T13:40:08.723Z,26.91
2019-05-23T13:42:37.622Z,26.97
2019-05-23T13:45:08.850Z,27.01
2019-05-23T13:47:37.295Z,26.63
2019-05-23T13:50:08.914Z,27.42
2019-05-23T13:52:37.891Z,27.00
2019-05-23T13:55:06.905Z,27.19
2019-05-23T13:57:36.535Z,28.52
2019-05-23T14:00:08.674Z,27.98
2019-05-23T14:02:37.971Z,27.48
2019-05-23T14:05:07.837Z,28.31
2019-05-23T14:07:36.770Z,28.47
2019-05-23T14:10:10.416Z,27.74
2019-05-23T14:12:39.495Z,29.48
2019-05-23T14:15:10.227Z,28.38
2019-05-23T14:17:45.922Z,27.50
2019-05-23T14:20:15.408Z,27.92
2019-05-23T14:22:46.030Z,26.93
2019-05-23T14:25:15.144Z,28.57
2019-05-23T14:27:47.803Z,26.75
2019-05-23T14:30:30.308Z,27.04
2019-05-23T14:33:03.734Z,26.74
2019-05-23T14:35:34.099Z,27.00
2019-05-23T14:38:04.161Z,27.12
2019-05-23T14:40:32.693Z,25.52
2019-05-23T14:43:05.494Z,25.69
2019-05-23T14:45:35.546Z,25.88
2019-05-23T14:48:23.027Z,27.30
2019-05-23T14:50:53.768Z,27.28
2019-05-23T14:53:26.548Z,27.44
2019-05-23T14:55:55.032Z,28.14
2019-05-23T14:58:23.538Z,28.66
2019-05-23T15:00:52.799Z,26.24
2019-05-23T15:03:20.504Z,27.56
2019-05-23T15:05:49.170Z,25.96
2019-05-23T15:08:17.917Z,27.15
2019-05-23T15:10:46.377Z,27.32
2019-05-23T15:13:14.815Z,28.19
2019-05-23T15:15:43.331Z,27.77
2019-05-23T15:18:11.845Z,27.09
2019-05-23T15:20:40.354Z,27.62
2019-05-23T15:23:08.893Z,27.33
2019-05-23T15:25:37.402Z,27.56
2019-05-23T15:28:05.912Z,27.15
2019-05-23T15:30:34.338Z,26.90
2019-05-23T15:33:03.031Z,26.27
2019-05-23T15:35:32.018Z,27.51
2019-05-23T15:38:00.449Z,27.78
2019-05-23T15:40:29.017Z,28.56
2019-05-23T15:42:57.451Z,28.53
2019-05-23T15:45:26.362Z,26.94
2019-05-23T15:47:54.935Z,27.66
2019-05-23T15:50:31.007Z,27.08
2019-05-23T15:53:03.776Z,27.16
2019-05-23T15:55:36.732Z,27.11
2019-05-23T15:58:06.901Z,26.99
2019-05-23T16:00:48.232Z,27.48
2019-05-23T16:03:34.904Z,26.84
2019-05-23T16:06:04.965Z,26.94
2019-05-23T16:08:33.427Z,27.07
2019-05-23T16:11:02.147Z,27.41
2019-05-23T16:13:31.050Z,27.41
2019-05-23T16:15:59.566Z,27.74
2019-05-23T16:18:28.084Z,27.89
2019-05-23T16:20:58.201Z,27.69
2019-05-23T16:23:26.649Z,27.00
2019-05-23T16:25:55.366Z,28.07
2019-05-23T16:28:23.831Z,27.38
2019-05-23T16:30:52.219Z,27.44
2019-05-23T16:33:20.663Z,27.13
2019-05-23T16:35:49.154Z,26.71
2019-05-23T16:38:17.596Z,26.72
2019-05-23T16:40:46.018Z,26.97
2019-05-23T16:43:14.453Z,28.98
2019-05-23T16:45:43.313Z,27.23
2019-05-23T16:48:11.732Z,27.06
2019-05-23T16:50:40.157Z,27.64
2019-05-23T16:53:08.584Z,27.44
2019-05-23T16:55:38.716Z,28.01
2019-05-23T16:58:08.163Z,28.59
2019-05-23T17:00:54.325Z,27.62
2019-05-23T17:03:33.611Z,27.77
2019-05-23T17:06:18.741Z,28.31
2019-05-23T17:08:48.956Z,27.33
2019-05-23T17:11:19.655Z,27.83
2019-05-23T17:13:49.740Z,28.65
2019-05-23T17:16:28.841Z,27.83
2019-05-23T17:19:08.114Z,28.50
2019-05-23T17:21:53.375Z,28.03
2019-05-23T17:24:32.158Z,29.20
2019-05-23T17:27:14.107Z,28.12
2019-05-23T17:29:44.175Z,28.54
2019-05-23T17:32:14.282Z,28.96
2019-05-23T17:34:42.732Z,30.26
2019-05-23T17:37:12.888Z,29.31
2019-05-23T17:39:42.296Z,29.91
2019-05-23T17:42:10.749Z,29.70
2019-05-23T17:44:39.181Z,29.76
2019-05-23T17:47:07.658Z,30.03
2019-05-23T17:49:37.518Z,30.90
2019-05-23T17:52:06.432Z,31.51
2019-05-23T17:54:35.414Z,31.44
2019-05-23T17:57:03.839Z,32.06
2019-05-23T17:59:32.301Z,32.23
2019-05-23T18:02:01.474Z,33.08
2019-05-23T18:04:30.171Z,32.97
2019-05-23T18:06:58.607Z,33.22
2019-05-23T18:09:27.585Z,33.72
2019-05-23T18:11:56.162Z,33.78
2019-05-23T18:14:25.028Z,35.24
2019-05-23T18:16:53.517Z,33.40
2019-05-23T18:19:21.957Z,33.53
2019-05-23T18:21:51.099Z,34.89
2019-05-23T18:24:20.042Z,33.67
2019-05-23T18:26:48.701Z,34.30
2019-05-23T18:29:17.629Z,34.07
2019-05-23T18:31:47.864Z,34.65
2019-05-23T18:34:15.559Z,33.62
2019-05-23T18:36:43.941Z,32.92
2019-05-23T18:39:14.219Z,33.24
2019-05-23T18:41:42.630Z,33.38
2019-05-23T18:44:11.316Z,34.64
2019-05-23T18:46:44.052Z,34.22
2019-05-23T18:49:12.529Z,34.68
2019-05-23T18:51:40.942Z,35.45
2019-05-23T18:54:10.491Z,34.47
2019-05-23T18:56:39.073Z,35.93
2019-05-23T18:59:08.119Z,36.49
2019-05-23T19:01:36.625Z,36.92
2019-05-23T19:04:05.757Z,37.92
2019-05-23T19:06:34.918Z,38.79
2019-05-23T19:09:07.075Z,38.49
2019-05-23T19:11:35.485Z,37.89
2019-05-23T19:14:04.301Z,40.21
2019-05-23T19:16:33.360Z,39.95
2019-05-23T19:19:02.327Z,40.10
2019-05-23T19:21:31.189Z,40.01
2019-05-23T19:23:59.685Z,40.41
2019-05-23T19:26:28.459Z,41.36
2019-05-23T19:28:57.053Z,41.33
2019-05-23T19:31:26.062Z,41.68
2019-05-23T19:33:54.622Z,42.03
2019-05-23T19:36:24.089Z,42.45
2019-05-23T19:38:52.604Z,42.44
2019-05-23T19:41:36.360Z,42.62
2019-05-23T19:43:50.700Z,44.07
2019-05-23T19:46:19.427Z,41.11
2019-05-23T19:48:48.544Z,44.10
2019-05-23T19:51:17.995Z,43.90
2019-05-23T19:53:47.062Z,44.93
2019-05-23T19:56:15.555Z,45.86
2019-05-23T19:58:44.081Z,45.05
2019-05-23T20:01:12.751Z,45.74
2019-05-23T20:03:41.269Z,46.29
2019-05-23T20:06:10.433Z,46.83
2019-05-23T20:08:39.212Z,47.38
2019-05-23T20:11:08.072Z,47.67
2019-05-23T20:13:36.515Z,47.43
2019-05-23T20:16:05.532Z,49.42
2019-05-23T20:18:34.106Z,48.26
2019-05-23T20:21:03.128Z,48.68
2019-05-23T20:23:31.605Z,48.76
2019-05-23T20:26:00.036Z,48.67
2019-05-23T20:28:29.203Z,49.17
2019-05-23T20:30:58.239Z,50.88
2019-05-23T20:33:27.338Z,49.96
2019-05-23T20:35:55.769Z,51.96
2019-05-23T20:38:25.142Z,51.42
2019-05-23T20:40:53.923Z,52.41
2019-05-23T20:43:22.366Z,52.02
2019-05-23T20:45:50.863Z,53.88
2019-05-23T20:48:19.479Z,53.59
2019-05-23T20:50:47.978Z,54.11
2019-05-23T20:53:16.758Z,55.27
2019-05-23T20:55:45.284Z,52.25
2019-05-23T20:58:13.742Z,54.00
2019-05-23T21:00:56.337Z,52.28
2019-05-23T21:03:25.820Z,51.45
2019-05-23T21:05:54.604Z,52.54
2019-05-23T21:08:23.046Z,52.81
2019-05-23T21:10:51.747Z,51.85
2019-05-23T21:13:20.183Z,52.33
2019-05-23T21:15:48.938Z,52.63
2019-05-23T21:18:17.453Z,52.16
2019-05-23T21:20:45.953Z,52.08
2019-05-23T21:23:14.607Z,51.59
2019-05-23T21:25:44.663Z,52.14
2019-05-23T21:28:12.355Z,52.37
2019-05-23T21:30:40.789Z,50.23
2019-05-23T21:33:09.554Z,52.13
2019-05-23T21:35:38.049Z,51.84
2019-05-23T21:38:06.468Z,52.15
2019-05-23T21:40:37.943Z,52.11
2019-05-23T21:43:06.378Z,52.19
2019-05-23T21:45:34.938Z,51.98
2019-05-23T21:48:03.748Z,51.69
2019-05-23T21:50:32.574Z,52.00
2019-05-23T21:53:01.018Z,51.91
2019-05-23T21:55:37.831Z,51.82
2019-05-23T21:58:07.412Z,52.43
2019-05-23T22:01:07.762Z,52.91
2019-05-23T22:03:53.507Z,52.07
2019-05-23T22:06:34.661Z,49.74
2019-05-23T22:09:04.775Z,52.58
2019-05-23T22:11:33.196Z,54.21
2019-05-23T22:14:01.626Z,53.35
2019-05-23T22:16:30.416Z,54.91
2019-05-23T22:18:59.196Z,55.52
2019-05-23T22:21:27.636Z,55.27
2019-05-23T22:23:56.053Z,56.75
2019-05-23T22:26:24.551Z,56.36
2019-05-23T22:28:53.040Z,57.67
2019-05-23T22:31:22.224Z,57.47
2019-05-23T22:33:58.455Z,58.02
2019-05-23T22:36:26.869Z,58.89
2019-05-23T22:38:55.293Z,59.65
2019-05-23T22:41:23.710Z,59.42
2019-05-23T22:43:52.160Z,60.91
2019-05-23T22:46:22.311Z,60.23
2019-05-23T22:48:50.747Z,61.40
2019-05-23T22:51:19.165Z,60.67
2019-05-23T22:53:47.604Z,61.32
2019-05-23T22:56:16.036Z,62.22
2019-05-23T22:58:45.126Z,61.79
2019-05-23T23:01:14.459Z,62.02
2019-05-23T23:03:42.869Z,62.94
2019-05-23T23:06:11.679Z,63.22
2019-05-23T23:08:40.308Z,62.93
2019-05-23T23:11:10.672Z,63.39
2019-05-23T23:13:39.478Z,63.96
2019-05-23T23:16:09.003Z,63.61
2019-05-23T23:18:37.431Z,64.18
2019-05-23T23:21:05.854Z,64.33
2019-05-23T23:23:34.274Z,63.84
2019-05-23T23:26:02.731Z,64.72
2019-05-23T23:28:31.190Z,64.54
2019-05-23T23:30:59.595Z,65.10
2019-05-23T23:33:28.021Z,65.45
2019-05-23T23:35:56.466Z,65.16
2019-05-23T23:38:24.946Z,65.59
2019-05-23T23:40:53.356Z,65.96
2019-05-23T23:43:21.800Z,65.95
2019-05-23T23:46:07.782Z,66.00
2019-05-23T23:48:53.827Z,66.65
2019-05-23T23:51:40.684Z,66.28
2019-05-23T23:54:27.413Z,66.97
2019-05-23T23:57:14.126Z,67.50
2019-05-23T23:59:41.825Z,66.28
